createdAt,value
2022-08-07T00:02:36.971Z,69.26
2022-08-07T00:07:18.773Z,69.04
2022-08-07T00:12:20.596Z,69.42
2022-08-07T00:17:22.081Z,69.90
2022-08-07T00:22:24.691Z,70.34
2022-08-07T00:27:52.778Z,70.77
2022-08-07T00:32:57.601Z,71.10
2022-08-07T00:38:00.137Z,71.01
2022-08-07T00:43:01.873Z,70.49
2022-08-07T00:48:09.411Z,70.72
2022-08-07T00:53:13.021Z,71.14
2022-08-07T00:58:14.681Z,71.81
2022-08-07T01:03:16.620Z,72.74
2022-08-07T01:08:18.295Z,72.76
2022-08-07T01:13:22.541Z,72.41
2022-08-07T01:18:24.895Z,72.78
2022-08-07T01:23:36.384Z,72.90
2022-08-07T01:28:46.004Z,73.78
2022-08-07T01:33:57.470Z,73.62
2022-08-07T01:39:04.107Z,73.83
2022-08-07T01:44:13.571Z,74.95
2022-08-07T01:49:16.180Z,74.06
2022-08-07T01:54:32.834Z,74.03
2022-08-07T01:59:46.703Z,74.97
2022-08-07T02:05:04.813Z,74.85
2022-08-07T02:10:27.897Z,75.61
2022-08-07T02:15:31.412Z,75.97
2022-08-07T02:20:35.822Z,76.59
2022-08-07T02:26:32.059Z,76.54
2022-08-07T02:31:09.149Z,76.71
2022-08-07T02:36:30.467Z,76.57
2022-08-07T02:41:41.134Z,77.28
2022-08-07T02:46:56.188Z,78.01
2022-08-07T02:52:03.188Z,78.42
2022-08-07T02:57:08.547Z,78.70
2022-08-07T03:02:10.563Z,79.20
2022-08-07T03:07:14.380Z,79.04
2022-08-07T03:12:22.690Z,78.52
2022-08-07T03:17:53.359Z,79.15
2022-08-07T03:22:58.638Z,80.25
2022-08-07T03:28:09.685Z,80.32
2022-08-07T03:33:23.692Z,80.38
2022-08-07T03:38:36.298Z,80.29
2022-08-07T03:43:44.055Z,80.94
2022-08-07T03:49:02.462Z,81.10
2022-08-07T03:54:35.697Z,80.22
2022-08-07T03:59:29.936Z,81.47
2022-08-07T04:04:32.676Z,82.02
2022-08-07T04:09:44.697Z,81.76
2022-08-07T04:14:54.496Z,81.53
2022-08-07T04:19:58.394Z,81.67
2022-08-07T04:25:02.489Z,81.70
2022-08-07T04:30:11.666Z,82.75
2022-08-07T04:35:35.427Z,82.53
2022-08-07T04:40:51.212Z,82.24
2022-08-07T04:46:12.281Z,82.28
2022-08-07T04:51:27.622Z,81.92
2022-08-07T04:58:10.232Z,82.46
2022-08-07T05:02:26.700Z,82.86
2022-08-07T05:07:36.803Z,82.81
2022-08-07T05:12:58.601Z,82.37
2022-08-07T05:18:10.392Z,82.56
2022-08-07T05:23:31.892Z,81.88
2022-08-07T05:28:40.512Z,81.99
2022-08-07T05:33:51.190Z,81.22
2022-08-07T05:40:03.748Z,80.66
2022-08-07T05:44:34.447Z,80.22
2022-08-07T05:49:40.735Z,79.27
2022-08-07T05:54:44.601Z,78.26
2022-08-07T06:00:01.263Z,77.88
2022-08-07T06:05:15.479Z,77.74
2022-08-07T06:10:21.386Z,76.95
2022-08-07T06:15:38.521Z,75.93
2022-08-07T06:20:50.980Z,75.89
2022-08-07T06:26:12.996Z,75.45
2022-08-07T06:31:14.632Z,75.37
2022-08-07T06:36:34.903Z,74.52
2022-08-07T06:42:02.214Z,74.20
2022-08-07T06:47:23.811Z,73.20
2022-08-07T06:52:36.444Z,72.78
2022-08-07T06:57:43.590Z,71.12
2022-08-07T07:02:57.511Z,70.31
2022-08-07T07:08:06.376Z,71.38
2022-08-07T07:13:56.265Z,68.64
2022-08-07T07:18:50.018Z,68.07
2022-08-07T07:24:08.088Z,65.45
2022-08-07T07:29:39.048Z,64.31
2022-08-07T07:34:42.657Z,62.65
2022-08-07T07:39:54.691Z,60.83
2022-08-07T07:44:59.576Z,60.79
2022-08-07T07:50:34.693Z,62.13
2022-08-07T07:55:27.212Z,61.48
2022-08-07T08:00:41.013Z,55.65
2022-08-07T08:05:55.075Z,56.15
2022-08-07T08:10:57.847Z,55.99
2022-08-07T08:16:03.075Z,55.06
2022-08-07T08:21:05.624Z,55.77
2022-08-07T08:26:50.538Z,54.20
2022-08-07T08:32:16.976Z,53.86
2022-08-07T08:37:59.410Z,50.67
2022-08-07T08:42:46.701Z,48.62
2022-08-07T08:48:18.047Z,47.80
2022-08-07T08:53:42.890Z,46.76
2022-08-07T08:59:00.264Z,46.88
2022-08-07T09:04:25.938Z,45.95
2022-08-07T09:09:56.891Z,44.05
2022-08-07T09:16:24.319Z,42.76
2022-08-07T09:20:58.541Z,38.79
2022-08-07T09:26:32.336Z,40.30
2022-08-07T09:31:50.997Z,39.58
2022-08-07T09:37:11.724Z,36.67
2022-08-07T09:42:41.196Z,37.70
2022-08-07T09:48:03.703Z,38.34
2022-08-07T09:53:12.470Z,37.93
2022-08-07T09:58:38.317Z,37.18
2022-08-07T10:04:14.872Z,36.15
2022-08-07T10:09:42.679Z,35.04
2022-08-07T10:15:15.363Z,35.86
2022-08-07T10:21:19.990Z,36.00
2022-08-07T10:26:33.510Z,36.33
2022-08-07T10:32:06.555Z,36.03
2022-08-07T10:38:21.577Z,36.30
2022-08-07T10:43:43.082Z,35.13
2022-08-07T10:49:14.742Z,34.19
2022-08-07T10:54:34.264Z,34.59
2022-08-07T10:59:45.370Z,35.41
2022-08-07T11:05:20.089Z,33.80
2022-08-07T11:10:34.480Z,35.26
2022-08-07T11:15:41.117Z,34.05
2022-08-07T11:21:10.322Z,33.20
2022-08-07T11:26:24.340Z,33.48
2022-08-07T11:31:34.864Z,34.01
2022-08-07T11:36:54.103Z,33.94
2022-08-07T11:42:18.646Z,34.92
2022-08-07T11:47:56.498Z,34.46
2022-08-07T11:53:28.341Z,34.37
2022-08-07T12:00:12.602Z,34.76
2022-08-07T12:04:59.403Z,35.77
2022-08-07T12:10:27.608Z,35.44
2022-08-07T12:15:46.034Z,35.05
2022-08-07T12:21:55.870Z,35.09
2022-08-07T12:26:53.291Z,34.25
2022-08-07T12:32:04.769Z,34.20
2022-08-07T12:37:16.542Z,34.42
2022-08-07T12:42:27.897Z,33.48
2022-08-07T12:47:42.673Z,34.57
2022-08-07T12:52:57.603Z,34.03
2022-08-07T12:58:02.526Z,32.97
2022-08-07T13:03:56.054Z,33.98
2022-08-07T13:10:19.312Z,33.50
2022-08-07T13:15:06.949Z,33.46
2022-08-07T13:20:27.842Z,34.29
2022-08-07T13:25:41.702Z,33.23
2022-08-07T13:30:52.114Z,33.52
2022-08-07T13:36:05.850Z,34.15
2022-08-07T13:41:35.807Z,33.95
2022-08-07T13:46:49.677Z,34.12
2022-08-07T13:52:22.370Z,33.94
2022-08-07T13:57:24.212Z,34.38
2022-08-07T14:02:45.756Z,33.77
2022-08-07T14:07:59.546Z,34.37
2022-08-07T14:13:03.803Z,33.97
2022-08-07T14:18:29.741Z,33.74
2022-08-07T14:24:00.034Z,33.83
2022-08-07T14:29:04.383Z,34.21
2022-08-07T14:34:12.160Z,33.85
2022-08-07T14:40:17.992Z,34.10
2022-08-07T14:44:49.647Z,33.54
2022-08-07T14:49:58.472Z,33.23
2022-08-07T14:55:02.599Z,34.53
2022-08-07T15:00:07.992Z,34.57
2022-08-07T15:16:11.483Z,34.21
2022-08-07T15:26:48.051Z,34.34
2022-08-07T15:32:00.657Z,34.21
2022-08-07T15:37:07.087Z,34.04
2022-08-07T15:42:45.203Z,34.18
2022-08-07T15:53:07.795Z,34.35
2022-08-07T15:58:20.738Z,34.52
2022-08-07T16:03:46.094Z,34.39
2022-08-07T16:08:48.069Z,34.41
2022-08-07T16:14:03.012Z,34.83
2022-08-07T16:19:59.592Z,34.33
2022-08-07T16:25:23.337Z,34.92
2022-08-07T16:30:44.510Z,36.06
2022-08-07T16:36:19.950Z,36.06
2022-08-07T16:41:59.573Z,36.22
2022-08-07T16:47:25.183Z,36.21
2022-08-07T16:52:53.415Z,35.47
2022-08-07T16:58:15.699Z,35.87
2022-08-07T17:03:58.447Z,35.67
2022-08-07T17:09:13.971Z,36.30
2022-08-07T17:14:31.282Z,35.97
2022-08-07T17:20:00.647Z,35.64
2022-08-07T17:25:18.463Z,36.53
2022-08-07T17:30:26.926Z,36.69
2022-08-07T17:36:05.992Z,36.36
2022-08-07T17:42:01.720Z,36.97
2022-08-07T17:47:02.927Z,37.42
2022-08-07T17:52:12.819Z,37.56
2022-08-07T17:57:21.708Z,38.13
2022-08-07T18:02:36.049Z,38.30
2022-08-07T18:07:44.944Z,38.74
2022-08-07T18:13:10.714Z,39.15
2022-08-07T18:18:47.598Z,39.66
2022-08-07T18:23:50.706Z,39.69
2022-08-07T18:30:06.279Z,39.85
2022-08-07T18:35:00.720Z,40.40
2022-08-07T18:40:42.517Z,40.97
2022-08-07T18:46:21.697Z,40.97
2022-08-07T18:52:33.483Z,41.38
2022-08-07T18:57:23.516Z,41.51
2022-08-07T19:02:36.447Z,41.26
2022-08-07T19:07:59.484Z,41.98
2022-08-07T19:13:50.980Z,42.55
2022-08-07T19:19:05.095Z,42.40
2022-08-07T19:24:34.503Z,42.69
2022-08-07T19:31:00.400Z,42.98
2022-08-07T19:35:16.623Z,43.98
2022-08-07T19:40:31.810Z,43.40
2022-08-07T19:46:07.990Z,43.54
2022-08-07T19:51:04.485Z,44.03
2022-08-07T19:57:51.501Z,44.57
2022-08-07T20:01:56.302Z,44.37
2022-08-07T20:07:01.043Z,45.05
2022-08-07T20:12:31.338Z,45.84
2022-08-07T20:17:26.564Z,46.24
2022-08-07T20:22:34.128Z,45.99
2022-08-07T20:27:46.317Z,46.45
2022-08-07T20:32:54.862Z,47.02
2022-08-07T20:38:00.861Z,47.46
2022-08-07T20:43:14.898Z,47.62
2022-08-07T20:48:29.640Z,47.91
2022-08-07T20:54:02.803Z,48.67
2022-08-07T20:59:05.272Z,48.83
2022-08-07T21:04:22.877Z,48.96
2022-08-07T21:09:52.894Z,49.46
2022-08-07T21:15:02.778Z,50.38
2022-08-07T21:20:09.918Z,51.17
2022-08-07T21:25:22.634Z,51.40
2022-08-07T21:30:35.019Z,51.43
2022-08-07T21:36:04.881Z,52.23
2022-08-07T21:41:38.290Z,52.99
2022-08-07T21:46:59.653Z,53.54
2022-08-07T21:52:13.137Z,54.17
2022-08-07T21:57:51.585Z,54.20
2022-08-07T22:03:05.532Z,54.94
2022-08-07T22:08:10.346Z,55.17
2022-08-07T22:13:14.140Z,54.97
2022-08-07T22:18:28.349Z,55.28
2022-08-07T22:23:58.039Z,55.60
2022-08-07T22:29:08.934Z,55.31
2022-08-07T22:34:52.902Z,55.40
2022-08-07T22:40:18.436Z,55.45
2022-08-07T22:46:40.442Z,55.30
2022-08-07T22:52:00.392Z,55.50
2022-08-07T22:57:21.050Z,55.57
2022-08-07T23:02:36.841Z,56.14
2022-08-07T23:07:57.791Z,55.83
2022-08-07T23:13:29.231Z,56.57
2022-08-07T23:18:45.686Z,56.60
2022-08-07T23:24:24.004Z,57.13
2022-08-07T23:30:35.817Z,57.15
2022-08-07T23:35:47.105Z,57.28
2022-08-07T23:41:11.876Z,57.95
2022-08-07T23:46:34.913Z,58.02
2022-08-07T23:53:05.382Z,58.90
2022-08-07T23:57:13.902Z,58.44
